Oujda, Morocco

5:36 PM WEST on May 26, 2015 (GMT +0100)
Zenata-Messali El Hadj | | Change Station
CLOSE
Current Station
Airport
Location: Tlemcen,
Elevation: 810 ft
Nearby Weather Stations

Elev 810 ft 35.01 °N, 1.46 °W | Updated 6 minutes ago

Scattered Clouds
Scattered Clouds
73 °F
Feels Like 73 °F
N
7
Wind Variable Wind from East

Today
High -- | Low -- °F
--% Chance of Precip.
Yesterday
High -- | Low -- °F
Precip. -- in
5:58 AM 8:11 PM
First Quarter, 59% visible
Pressure 30.04 in
Visibility 6.2 miles
Clouds Scattered Clouds 2600 ft
Scattered Clouds 10000 ft
Dew Point 54 °F
Humidity 50%
Rainfall 0.00 in
Snow Depth Not available.
UV 3 out of 12
Pollen Not available.
Air Quality Not available.
Flu Activity Not available.
METAR DAON 261630Z 10006KT 9999 SCT026 SCT100 23/12 Q1017

More Conditions Fewer Conditions

Pressure 30.04 in
Visibility 6.2 miles
Clouds Scattered Clouds 2600 ft
Scattered Clouds 10000 ft
Dew Point 54 °F
Humidity 50%
Rainfall 0.00 in
Snow Depth Not available.
UV 3 out of 12
Pollen Not available.
Air Quality Not available.
Flu Activity Not available.
METAR DAON 261630Z 10006KT 9999 SCT026 SCT100 23/12 Q1017

More Conditions Fewer Conditions

10-Day Weather Forecast

Almanac

Astronomy

May. 26, 2015 Rise Set
Actual Time
Civil Twilight
Nautical Twilight
Astronomical Twilight
Moon
Length of Visible Light
Length of Day
Tomorrow will be .
, % of the Moon is Illuminated

Today's Extremes

Country Highs Country Lows

Community

WunderPhotos

Upload Photos

1,824,379 photos uploaded!

WunderBlogs® & News

Nearby

Air Quality

  Air Quality AQ Index Pollutant
Not available.

Snow Depth

Station Depth Elevation

Earthquake Activity

City Distance Mag. Time & Date
Minimum magnitude displayed is 2.5.

Coastal Water Temperatures

Place Temperature

Stations

Nearby Weather Stations

Station Location Temp. Windchill Dew Point Humidity Wind Precip. Elev Updated Type